sensor_id;sensor_type;location;lat;lon;timestamp;temperature;humidity
13970;DHT22;7057;49.984;8.404;2023-09-08T00:01:07;19.40;99.90
13970;DHT22;7057;49.984;8.404;2023-09-08T00:03:35;19.40;99.90
13970;DHT22;7057;49.984;8.404;2023-09-08T00:06:02;19.40;99.90
13970;DHT22;7057;49.984;8.404;2023-09-08T00:08:30;19.40;99.90
13970;DHT22;7057;49.984;8.404;2023-09-08T00:10:57;19.40;99.90
13970;DHT22;7057;49.984;8.404;2023-09-08T00:13:25;19.40;99.90
13970;DHT22;7057;49.984;8.404;2023-09-08T00:15:52;19.40;99.90
13970;DHT22;7057;49.984;8.404;2023-09-08T00:18:20;19.40;99.90
13970;DHT22;7057;49.984;8.404;2023-09-08T00:20:47;19.30;99.90
13970;DHT22;7057;49.984;8.404;2023-09-08T00:23:14;19.30;99.90
13970;DHT22;7057;49.984;8.404;2023-09-08T00:25:41;19.30;99.90
13970;DHT22;7057;49.984;8.404;2023-09-08T00:28:08;19.30;99.90
13970;DHT22;7057;49.984;8.404;2023-09-08T00:30:37;19.30;99.90
13970;DHT22;7057;49.984;8.404;2023-09-08T00:33:04;19.30;99.90
13970;DHT22;7057;49.984;8.404;2023-09-08T00:35:34;19.30;99.90
13970;DHT22;7057;49.984;8.404;2023-09-08T00:38:01;19.30;99.90
13970;DHT22;7057;49.984;8.404;2023-09-08T00:40:29;19.20;99.90
13970;DHT22;7057;49.984;8.404;2023-09-08T00:42:56;19.20;99.90
13970;DHT22;7057;49.984;8.404;2023-09-08T00:45:23;19.20;99.90
13970;DHT22;7057;49.984;8.404;2023-09-08T00:47:52;19.20;99.90
13970;DHT22;7057;49.984;8.404;2023-09-08T00:50:19;19.20;99.90
13970;DHT22;7057;49.984;8.404;2023-09-08T00:52:46;19.20;99.90
13970;DHT22;7057;49.984;8.404;2023-09-08T00:55:13;19.20;99.90
13970;DHT22;7057;49.984;8.404;2023-09-08T00:57:41;19.30;99.90
13970;DHT22;7057;49.984;8.404;2023-09-08T01:00:09;19.10;99.90
13970;DHT22;7057;49.984;8.404;2023-09-08T01:02:37;19.20;99.90
13970;DHT22;7057;49.984;8.404;2023-09-08T01:05:06;19.20;99.90
13970;DHT22;7057;49.984;8.404;2023-09-08T01:07:33;19.20;99.90
13970;DHT22;7057;49.984;8.404;2023-09-08T01:10:01;19.20;99.90
13970;DHT22;7057;49.984;8.404;2023-09-08T01:12:32;19.10;99.90
13970;DHT22;7057;49.984;8.404;2023-09-08T01:14:59;19.10;99.90
13970;DHT22;7057;49.984;8.404;2023-09-08T01:17:26;19.10;99.90
13970;DHT22;7057;49.984;8.404;2023-09-08T01:19:55;19.10;99.90
13970;DHT22;7057;49.984;8.404;2023-09-08T01:22:45;19.10;99.90
13970;DHT22;7057;49.984;8.404;2023-09-08T01:25:21;19.10;99.90
13970;DHT22;7057;49.984;8.404;2023-09-08T01:27:50;19.10;99.90
13970;DHT22;7057;49.984;8.404;2023-09-08T01:30:18;19.00;99.90
13970;DHT22;7057;49.984;8.404;2023-09-08T01:32:47;19.00;99.90
13970;DHT22;7057;49.984;8.404;2023-09-08T01:35:14;19.00;99.90
13970;DHT22;7057;49.984;8.404;2023-09-08T01:37:43;18.90;99.90
13970;DHT22;7057;49.984;8.404;2023-09-08T01:40:11;18.90;99.90
13970;DHT22;7057;49.984;8.404;2023-09-08T01:42:40;19.00;99.90
13970;DHT22;7057;49.984;8.404;2023-09-08T01:45:08;19.00;99.90
13970;DHT22;7057;49.984;8.404;2023-09-08T01:47:36;18.90;99.90
13970;DHT22;7057;49.984;8.404;2023-09-08T01:50:03;19.00;99.90
13970;DHT22;7057;49.984;8.404;2023-09-08T01:52:31;18.90;99.90
13970;DHT22;7057;49.984;8.404;2023-09-08T01:54:58;18.90;99.90
13970;DHT22;7057;49.984;8.404;2023-09-08T01:57:25;18.90;99.90
13970;DHT22;7057;49.984;8.404;2023-09-08T01:59:53;18.80;99.90
13970;DHT22;7057;49.984;8.404;2023-09-08T02:02:20;18.80;99.90
13970;DHT22;7057;49.984;8.404;2023-09-08T02:04:48;18.70;99.90
13970;DHT22;7057;49.984;8.404;2023-09-08T02:07:15;18.70;99.90
13970;DHT22;7057;49.984;8.404;2023-09-08T02:09:42;18.70;99.90
13970;DHT22;7057;49.984;8.404;2023-09-08T02:12:09;18.70;99.90
13970;DHT22;7057;49.984;8.404;2023-09-08T02:14:36;18.60;99.90
13970;DHT22;7057;49.984;8.404;2023-09-08T02:17:05;18.60;99.90
13970;DHT22;7057;49.984;8.404;2023-09-08T02:19:33;18.60;99.90
13970;DHT22;7057;49.984;8.404;2023-09-08T02:22:00;18.60;99.90
13970;DHT22;7057;49.984;8.404;2023-09-08T02:24:27;18.60;99.90
13970;DHT22;7057;49.984;8.404;2023-09-08T02:26:54;18.70;99.90
13970;DHT22;7057;49.984;8.404;2023-09-08T02:29:21;18.70;99.90
13970;DHT22;7057;49.984;8.404;2023-09-08T02:31:49;18.70;99.90
13970;DHT22;7057;49.984;8.404;2023-09-08T02:34:18;18.70;99.90
13970;DHT22;7057;49.984;8.404;2023-09-08T02:36:45;18.70;99.90
13970;DHT22;7057;49.984;8.404;2023-09-08T02:39:13;18.60;99.90
13970;DHT22;7057;49.984;8.404;2023-09-08T02:41:40;18.60;99.90
13970;DHT22;7057;49.984;8.404;2023-09-08T02:44:08;18.60;99.90
13970;DHT22;7057;49.984;8.404;2023-09-08T02:46:35;18.50;99.90
13970;DHT22;7057;49.984;8.404;2023-09-08T02:49:02;18.50;99.90
13970;DHT22;7057;49.984;8.404;2023-09-08T02:51:31;18.40;99.90
13970;DHT22;7057;49.984;8.404;2023-09-08T02:53:58;18.40;99.90
13970;DHT22;7057;49.984;8.404;2023-09-08T02:56:25;18.40;99.90
13970;DHT22;7057;49.984;8.404;2023-09-08T02:58:52;18.40;99.90
13970;DHT22;7057;49.984;8.404;2023-09-08T03:01:19;18.30;99.90
13970;DHT22;7057;49.984;8.404;2023-09-08T03:03:47;18.30;99.90
13970;DHT22;7057;49.984;8.404;2023-09-08T03:06:17;18.30;99.90
13970;DHT22;7057;49.984;8.404;2023-09-08T03:08:46;18.30;99.90
13970;DHT22;7057;49.984;8.404;2023-09-08T03:11:13;18.30;99.90
13970;DHT22;7057;49.984;8.404;2023-09-08T03:13:40;18.30;99.90
13970;DHT22;7057;49.984;8.404;2023-09-08T03:16:08;18.30;99.90
13970;DHT22;7057;49.984;8.404;2023-09-08T03:18:37;18.20;99.90
13970;DHT22;7057;49.984;8.404;2023-09-08T03:21:04;18.20;99.90
13970;DHT22;7057;49.984;8.404;2023-09-08T03:23:36;18.30;99.90
13970;DHT22;7057;49.984;8.404;2023-09-08T03:26:04;18.30;99.90
13970;DHT22;7057;49.984;8.404;2023-09-08T03:28:32;18.30;99.90
13970;DHT22;7057;49.984;8.404;2023-09-08T03:31:00;18.30;99.90
13970;DHT22;7057;49.984;8.404;2023-09-08T03:33:28;18.30;99.90
13970;DHT22;7057;49.984;8.404;2023-09-08T03:35:55;18.30;99.90
13970;DHT22;7057;49.984;8.404;2023-09-08T03:38:22;18.30;99.90
13970;DHT22;7057;49.984;8.404;2023-09-08T03:40:49;18.30;99.90
13970;DHT22;7057;49.984;8.404;2023-09-08T03:43:18;18.30;99.90
13970;DHT22;7057;49.984;8.404;2023-09-08T03:45:45;18.30;99.90
13970;DHT22;7057;49.984;8.404;2023-09-08T03:48:13;18.20;99.90
13970;DHT22;7057;49.984;8.404;2023-09-08T03:50:40;18.20;99.90
13970;DHT22;7057;49.984;8.404;2023-09-08T03:53:11;18.20;99.90
13970;DHT22;7057;49.984;8.404;2023-09-08T03:55:38;18.20;99.90
13970;DHT22;7057;49.984;8.404;2023-09-08T03:58:05;18.10;99.90
13970;DHT22;7057;49.984;8.404;2023-09-08T04:00:34;18.10;99.90
13970;DHT22;7057;49.984;8.404;2023-09-08T04:03:01;18.10;99.90
13970;DHT22;7057;49.984;8.404;2023-09-08T04:05:29;18.00;99.90
13970;DHT22;7057;49.984;8.404;2023-09-08T04:07:56;18.00;99.90
13970;DHT22;7057;49.984;8.404;2023-09-08T04:10:23;18.00;99.90
13970;DHT22;7057;49.984;8.404;2023-09-08T04:12:50;18.10;99.90
13970;DHT22;7057;49.984;8.404;2023-09-08T04:15:17;17.90;99.90
13970;DHT22;7057;49.984;8.404;2023-09-08T04:17:46;17.80;99.90
13970;DHT22;7057;49.984;8.404;2023-09-08T04:20:13;17.80;99.90
13970;DHT22;7057;49.984;8.404;2023-09-08T04:22:41;17.80;99.90
13970;DHT22;7057;49.984;8.404;2023-09-08T04:25:08;17.80;99.90
13970;DHT22;7057;49.984;8.404;2023-09-08T04:27:36;17.70;99.90
13970;DHT22;7057;49.984;8.404;2023-09-08T04:30:04;17.70;99.90
13970;DHT22;7057;49.984;8.404;2023-09-08T04:32:31;17.60;99.90
13970;DHT22;7057;49.984;8.404;2023-09-08T04:35:00;17.60;99.90
13970;DHT22;7057;49.984;8.404;2023-09-08T04:37:27;17.50;99.90
13970;DHT22;7057;49.984;8.404;2023-09-08T04:39:56;17.60;99.90
13970;DHT22;7057;49.984;8.404;2023-09-08T04:42:23;17.60;99.90
13970;DHT22;7057;49.984;8.404;2023-09-08T04:44:51;17.60;99.90
13970;DHT22;7057;49.984;8.404;2023-09-08T04:47:19;17.60;99.90
13970;DHT22;7057;49.984;8.404;2023-09-08T04:49:46;17.50;99.90
13970;DHT22;7057;49.984;8.404;2023-09-08T04:52:14;17.50;99.90
13970;DHT22;7057;49.984;8.404;2023-09-08T04:54:42;17.50;99.90
13970;DHT22;7057;49.984;8.404;2023-09-08T04:57:09;17.50;99.90
13970;DHT22;7057;49.984;8.404;2023-09-08T04:59:36;17.50;99.90
13970;DHT22;7057;49.984;8.404;2023-09-08T05:02:05;17.40;99.90
13970;DHT22;7057;49.984;8.404;2023-09-08T05:04:32;17.50;99.90
13970;DHT22;7057;49.984;8.404;2023-09-08T05:06:59;17.40;99.90
13970;DHT22;7057;49.984;8.404;2023-09-08T05:09:27;17.40;99.90
13970;DHT22;7057;49.984;8.404;2023-09-08T05:11:54;17.40;99.90
13970;DHT22;7057;49.984;8.404;2023-09-08T05:14:22;17.40;99.90
13970;DHT22;7057;49.984;8.404;2023-09-08T05:16:50;17.40;99.90
13970;DHT22;7057;49.984;8.404;2023-09-08T05:19:21;17.50;99.90
13970;DHT22;7057;49.984;8.404;2023-09-08T05:21:50;17.50;99.90
13970;DHT22;7057;49.984;8.404;2023-09-08T05:24:17;17.50;99.90
13970;DHT22;7057;49.984;8.404;2023-09-08T05:26:46;17.60;99.90
13970;DHT22;7057;49.984;8.404;2023-09-08T05:29:13;17.60;99.90
13970;DHT22;7057;49.984;8.404;2023-09-08T05:31:40;17.80;99.90
13970;DHT22;7057;49.984;8.404;2023-09-08T05:34:07;17.70;99.90
13970;DHT22;7057;49.984;8.404;2023-09-08T05:36:34;17.70;99.90
13970;DHT22;7057;49.984;8.404;2023-09-08T05:39:04;17.80;99.90
13970;DHT22;7057;49.984;8.404;2023-09-08T05:41:31;17.80;99.90
13970;DHT22;7057;49.984;8.404;2023-09-08T05:44:01;17.90;99.90
13970;DHT22;7057;49.984;8.404;2023-09-08T05:46:28;18.00;99.90
13970;DHT22;7057;49.984;8.404;2023-09-08T05:48:55;18.00;99.90
13970;DHT22;7057;49.984;8.404;2023-09-08T05:51:22;18.10;99.90
13970;DHT22;7057;49.984;8.404;2023-09-08T05:53:50;18.10;99.90
13970;DHT22;7057;49.984;8.404;2023-09-08T05:56:18;18.30;99.90
13970;DHT22;7057;49.984;8.404;2023-09-08T05:58:45;18.30;99.90
13970;DHT22;7057;49.984;8.404;2023-09-08T06:01:15;18.40;99.90
13970;DHT22;7057;49.984;8.404;2023-09-08T06:03:42;18.50;99.90
13970;DHT22;7057;49.984;8.404;2023-09-08T06:06:09;18.50;99.90
13970;DHT22;7057;49.984;8.404;2023-09-08T06:08:36;18.70;99.90
13970;DHT22;7057;49.984;8.404;2023-09-08T06:11:04;18.70;99.90
13970;DHT22;7057;49.984;8.404;2023-09-08T06:13:31;18.80;99.90
13970;DHT22;7057;49.984;8.404;2023-09-08T06:15:58;18.90;99.90
13970;DHT22;7057;49.984;8.404;2023-09-08T06:18:28;18.90;99.90
13970;DHT22;7057;49.984;8.404;2023-09-08T06:20:56;19.00;99.90
13970;DHT22;7057;49.984;8.404;2023-09-08T06:23:23;19.10;99.90
13970;DHT22;7057;49.984;8.404;2023-09-08T06:25:50;19.20;99.90
13970;DHT22;7057;49.984;8.404;2023-09-08T06:28:18;19.30;99.90
13970;DHT22;7057;49.984;8.404;2023-09-08T06:30:45;19.40;99.90
13970;DHT22;7057;49.984;8.404;2023-09-08T06:33:12;19.50;99.90
13970;DHT22;7057;49.984;8.404;2023-09-08T06:35:40;19.60;99.90
13970;DHT22;7057;49.984;8.404;2023-09-08T06:38:07;19.70;99.90
13970;DHT22;7057;49.984;8.404;2023-09-08T06:40:35;19.80;99.90
13970;DHT22;7057;49.984;8.404;2023-09-08T06:43:02;20.00;99.90
13970;DHT22;7057;49.984;8.404;2023-09-08T06:45:29;20.10;99.90
13970;DHT22;7057;49.984;8.404;2023-09-08T06:47:57;20.30;99.90
13970;DHT22;7057;49.984;8.404;2023-09-08T06:50:26;20.30;99.90
13970;DHT22;7057;49.984;8.404;2023-09-08T06:52:56;20.40;99.90
13970;DHT22;7057;49.984;8.404;2023-09-08T06:55:23;20.50;99.90
13970;DHT22;7057;49.984;8.404;2023-09-08T06:57:50;20.60;99.90
13970;DHT22;7057;49.984;8.404;2023-09-08T07:00:17;20.80;99.90
13970;DHT22;7057;49.984;8.404;2023-09-08T07:02:46;20.80;99.90
13970;DHT22;7057;49.984;8.404;2023-09-08T07:05:15;20.90;99.90
13970;DHT22;7057;49.984;8.404;2023-09-08T07:07:42;21.00;99.90
13970;DHT22;7057;49.984;8.404;2023-09-08T07:10:11;21.20;99.90
13970;DHT22;7057;49.984;8.404;2023-09-08T07:12:39;21.20;99.90
13970;DHT22;7057;49.984;8.404;2023-09-08T07:15:07;21.30;99.90
13970;DHT22;7057;49.984;8.404;2023-09-08T07:17:35;21.40;99.90
13970;DHT22;7057;49.984;8.404;2023-09-08T07:20:03;21.50;99.90
13970;DHT22;7057;49.984;8.404;2023-09-08T07:22:30;21.60;99.90
13970;DHT22;7057;49.984;8.404;2023-09-08T07:24:57;21.70;99.90
13970;DHT22;7057;49.984;8.404;2023-09-08T07:27:26;21.90;99.90
13970;DHT22;7057;49.984;8.404;2023-09-08T07:29:53;22.00;99.90
13970;DHT22;7057;49.984;8.404;2023-09-08T07:32:20;22.00;99.90
13970;DHT22;7057;49.984;8.404;2023-09-08T07:34:48;22.10;99.90
13970;DHT22;7057;49.984;8.404;2023-09-08T07:37:20;22.20;99.90
13970;DHT22;7057;49.984;8.404;2023-09-08T07:39:48;22.30;99.90
13970;DHT22;7057;49.984;8.404;2023-09-08T07:42:15;22.30;99.90
13970;DHT22;7057;49.984;8.404;2023-09-08T07:44:44;22.40;99.90
13970;DHT22;7057;49.984;8.404;2023-09-08T07:47:11;22.50;99.90
13970;DHT22;7057;49.984;8.404;2023-09-08T07:49:38;22.60;99.90
13970;DHT22;7057;49.984;8.404;2023-09-08T07:52:05;22.70;99.90
13970;DHT22;7057;49.984;8.404;2023-09-08T07:54:33;22.90;99.90
13970;DHT22;7057;49.984;8.404;2023-09-08T07:57:00;22.90;99.90
13970;DHT22;7057;49.984;8.404;2023-09-08T07:59:27;23.10;99.90
13970;DHT22;7057;49.984;8.404;2023-09-08T08:01:56;23.20;99.90
13970;DHT22;7057;49.984;8.404;2023-09-08T08:04:23;23.30;99.90
13970;DHT22;7057;49.984;8.404;2023-09-08T08:06:50;23.40;99.90
13970;DHT22;7057;49.984;8.404;2023-09-08T08:09:17;23.60;99.90
13970;DHT22;7057;49.984;8.404;2023-09-08T08:11:44;23.60;99.90
13970;DHT22;7057;49.984;8.404;2023-09-08T08:14:11;23.70;99.90
13970;DHT22;7057;49.984;8.404;2023-09-08T08:16:38;23.60;99.90
13970;DHT22;7057;49.984;8.404;2023-09-08T08:19:07;23.60;99.90
13970;DHT22;7057;49.984;8.404;2023-09-08T08:21:34;23.80;99.90
13970;DHT22;7057;49.984;8.404;2023-09-08T08:24:01;23.90;99.90
13970;DHT22;7057;49.984;8.404;2023-09-08T08:26:28;24.10;99.90
13970;DHT22;7057;49.984;8.404;2023-09-08T08:28:58;24.20;99.90
13970;DHT22;7057;49.984;8.404;2023-09-08T08:31:25;24.20;99.90
13970;DHT22;7057;49.984;8.404;2023-09-08T08:33:52;24.20;99.90
13970;DHT22;7057;49.984;8.404;2023-09-08T08:36:21;24.30;99.90
13970;DHT22;7057;49.984;8.404;2023-09-08T08:38:48;24.50;99.90
13970;DHT22;7057;49.984;8.404;2023-09-08T08:41:15;24.60;99.90
13970;DHT22;7057;49.984;8.404;2023-09-08T08:43:43;24.70;99.90
13970;DHT22;7057;49.984;8.404;2023-09-08T08:46:12;24.80;99.90
13970;DHT22;7057;49.984;8.404;2023-09-08T08:48:40;24.90;99.90
13970;DHT22;7057;49.984;8.404;2023-09-08T08:51:08;25.00;99.90
13970;DHT22;7057;49.984;8.404;2023-09-08T08:53:39;25.10;99.90
13970;DHT22;7057;49.984;8.404;2023-09-08T08:56:07;25.10;99.90
13970;DHT22;7057;49.984;8.404;2023-09-08T08:58:37;25.10;99.90
13970;DHT22;7057;49.984;8.404;2023-09-08T09:01:06;25.10;99.90
13970;DHT22;7057;49.984;8.404;2023-09-08T09:03:35;25.20;99.90
13970;DHT22;7057;49.984;8.404;2023-09-08T09:06:04;25.40;99.90
13970;DHT22;7057;49.984;8.404;2023-09-08T09:08:31;25.50;99.90
13970;DHT22;7057;49.984;8.404;2023-09-08T09:11:00;25.50;99.90
13970;DHT22;7057;49.984;8.404;2023-09-08T09:13:28;25.50;99.90
13970;DHT22;7057;49.984;8.404;2023-09-08T09:15:58;25.60;99.90
13970;DHT22;7057;49.984;8.404;2023-09-08T09:18:29;25.60;99.90
13970;DHT22;7057;49.984;8.404;2023-09-08T09:20:59;25.80;99.90
13970;DHT22;7057;49.984;8.404;2023-09-08T09:23:27;26.00;99.90
13970;DHT22;7057;49.984;8.404;2023-09-08T09:25:54;26.20;99.90
13970;DHT22;7057;49.984;8.404;2023-09-08T09:28:23;26.10;99.90
13970;DHT22;7057;49.984;8.404;2023-09-08T09:30:51;26.10;99.90
13970;DHT22;7057;49.984;8.404;2023-09-08T09:33:20;26.20;99.90
13970;DHT22;7057;49.984;8.404;2023-09-08T09:35:48;26.20;99.90
13970;DHT22;7057;49.984;8.404;2023-09-08T09:38:16;26.20;99.90
13970;DHT22;7057;49.984;8.404;2023-09-08T09:40:44;26.30;99.90
13970;DHT22;7057;49.984;8.404;2023-09-08T09:43:12;26.40;99.90
13970;DHT22;7057;49.984;8.404;2023-09-08T09:45:42;26.50;99.90
13970;DHT22;7057;49.984;8.404;2023-09-08T09:48:11;26.50;99.90
13970;DHT22;7057;49.984;8.404;2023-09-08T09:50:40;26.60;99.90
13970;DHT22;7057;49.984;8.404;2023-09-08T09:53:10;26.70;99.90
13970;DHT22;7057;49.984;8.404;2023-09-08T09:55:38;26.80;99.90
13970;DHT22;7057;49.984;8.404;2023-09-08T09:58:06;26.90;99.90
13970;DHT22;7057;49.984;8.404;2023-09-08T10:00:34;27.00;99.90
13970;DHT22;7057;49.984;8.404;2023-09-08T10:03:04;27.10;99.90
13970;DHT22;7057;49.984;8.404;2023-09-08T10:05:32;27.20;99.90
13970;DHT22;7057;49.984;8.404;2023-09-08T10:08:00;27.40;99.90
13970;DHT22;7057;49.984;8.404;2023-09-08T10:10:28;27.40;99.90
13970;DHT22;7057;49.984;8.404;2023-09-08T10:13:04;27.50;99.90
13970;DHT22;7057;49.984;8.404;2023-09-08T10:15:33;27.60;99.90
13970;DHT22;7057;49.984;8.404;2023-09-08T10:18:05;27.60;99.90
13970;DHT22;7057;49.984;8.404;2023-09-08T10:20:34;27.70;99.90
13970;DHT22;7057;49.984;8.404;2023-09-08T10:23:06;27.70;99.90
13970;DHT22;7057;49.984;8.404;2023-09-08T10:25:39;27.80;99.90
13970;DHT22;7057;49.984;8.404;2023-09-08T10:28:09;27.90;99.90
13970;DHT22;7057;49.984;8.404;2023-09-08T10:30:37;27.80;99.90
13970;DHT22;7057;49.984;8.404;2023-09-08T10:33:06;27.80;99.90
13970;DHT22;7057;49.984;8.404;2023-09-08T10:35:34;27.90;99.90
13970;DHT22;7057;49.984;8.404;2023-09-08T10:38:24;28.00;99.90
13970;DHT22;7057;49.984;8.404;2023-09-08T10:40:51;28.00;99.90
13970;DHT22;7057;49.984;8.404;2023-09-08T10:43:19;28.00;99.90
13970;DHT22;7057;49.984;8.404;2023-09-08T10:45:47;28.20;99.90
13970;DHT22;7057;49.984;8.404;2023-09-08T10:48:15;28.10;99.90
13970;DHT22;7057;49.984;8.404;2023-09-08T10:50:43;28.10;99.90
13970;DHT22;7057;49.984;8.404;2023-09-08T10:53:13;28.10;99.90
13970;DHT22;7057;49.984;8.404;2023-09-08T10:55:43;28.20;99.90
13970;DHT22;7057;49.984;8.404;2023-09-08T10:58:31;28.30;99.90
13970;DHT22;7057;49.984;8.404;2023-09-08T11:01:00;28.40;99.90
13970;DHT22;7057;49.984;8.404;2023-09-08T11:03:43;28.50;99.90
13970;DHT22;7057;49.984;8.404;2023-09-08T11:06:11;28.70;99.90
13970;DHT22;7057;49.984;8.404;2023-09-08T11:08:42;28.80;99.90
13970;DHT22;7057;49.984;8.404;2023-09-08T11:11:10;28.80;99.90
13970;DHT22;7057;49.984;8.404;2023-09-08T11:13:38;28.80;99.90
13970;DHT22;7057;49.984;8.404;2023-09-08T11:16:06;28.80;99.90
13970;DHT22;7057;49.984;8.404;2023-09-08T11:18:35;28.90;99.90
13970;DHT22;7057;49.984;8.404;2023-09-08T11:21:08;28.80;99.90
13970;DHT22;7057;49.984;8.404;2023-09-08T11:23:36;28.60;99.90
13970;DHT22;7057;49.984;8.404;2023-09-08T11:26:03;28.30;99.90
13970;DHT22;7057;49.984;8.404;2023-09-08T11:28:32;28.30;99.90
13970;DHT22;7057;49.984;8.404;2023-09-08T11:30:59;28.40;99.90
13970;DHT22;7057;49.984;8.404;2023-09-08T11:33:26;28.50;99.90
13970;DHT22;7057;49.984;8.404;2023-09-08T11:35:55;28.70;99.90
13970;DHT22;7057;49.984;8.404;2023-09-08T11:38:25;28.70;99.90
13970;DHT22;7057;49.984;8.404;2023-09-08T11:40:53;28.90;99.90
13970;DHT22;7057;49.984;8.404;2023-09-08T11:43:20;29.00;99.90
13970;DHT22;7057;49.984;8.404;2023-09-08T11:45:48;29.10;99.90
13970;DHT22;7057;49.984;8.404;2023-09-08T11:48:15;29.10;99.90
13970;DHT22;7057;49.984;8.404;2023-09-08T11:50:43;29.00;99.90
13970;DHT22;7057;49.984;8.404;2023-09-08T11:53:12;29.00;99.90
13970;DHT22;7057;49.984;8.404;2023-09-08T11:55:39;29.10;99.90
13970;DHT22;7057;49.984;8.404;2023-09-08T11:58:07;29.20;99.90
13970;DHT22;7057;49.984;8.404;2023-09-08T12:00:34;29.10;99.90
13970;DHT22;7057;49.984;8.404;2023-09-08T12:03:10;29.10;99.90
13970;DHT22;7057;49.984;8.404;2023-09-08T12:05:37;29.20;99.90
13970;DHT22;7057;49.984;8.404;2023-09-08T12:08:05;29.20;99.90
13970;DHT22;7057;49.984;8.404;2023-09-08T12:10:39;29.40;99.90
13970;DHT22;7057;49.984;8.404;2023-09-08T12:13:07;29.50;99.90
13970;DHT22;7057;49.984;8.404;2023-09-08T12:15:36;29.60;99.90
13970;DHT22;7057;49.984;8.404;2023-09-08T12:18:05;29.70;99.90
13970;DHT22;7057;49.984;8.404;2023-09-08T12:20:32;29.70;99.90
13970;DHT22;7057;49.984;8.404;2023-09-08T12:23:01;29.90;99.90
13970;DHT22;7057;49.984;8.404;2023-09-08T12:25:28;29.90;99.90
13970;DHT22;7057;49.984;8.404;2023-09-08T12:27:58;29.90;99.90
13970;DHT22;7057;49.984;8.404;2023-09-08T12:30:27;30.00;99.90
13970;DHT22;7057;49.984;8.404;2023-09-08T12:32:59;30.00;99.90
13970;DHT22;7057;49.984;8.404;2023-09-08T12:35:27;30.00;99.90
13970;DHT22;7057;49.984;8.404;2023-09-08T12:37:58;30.10;99.90
13970;DHT22;7057;49.984;8.404;2023-09-08T12:40:26;30.10;99.90
13970;DHT22;7057;49.984;8.404;2023-09-08T12:42:54;30.00;99.90
13970;DHT22;7057;49.984;8.404;2023-09-08T12:45:25;30.10;99.90
13970;DHT22;7057;49.984;8.404;2023-09-08T12:47:53;30.10;99.90
13970;DHT22;7057;49.984;8.404;2023-09-08T12:50:24;30.10;99.90
13970;DHT22;7057;49.984;8.404;2023-09-08T12:52:51;30.20;99.90
13970;DHT22;7057;49.984;8.404;2023-09-08T12:55:19;30.10;99.90
13970;DHT22;7057;49.984;8.404;2023-09-08T12:57:46;30.00;99.90
13970;DHT22;7057;49.984;8.404;2023-09-08T13:00:14;30.10;99.90
13970;DHT22;7057;49.984;8.404;2023-09-08T13:02:44;30.10;99.90
13970;DHT22;7057;49.984;8.404;2023-09-08T13:05:11;30.00;99.90
13970;DHT22;7057;49.984;8.404;2023-09-08T13:07:39;30.10;99.90
13970;DHT22;7057;49.984;8.404;2023-09-08T13:10:07;30.00;99.90
13970;DHT22;7057;49.984;8.404;2023-09-08T13:12:34;30.10;99.90
13970;DHT22;7057;49.984;8.404;2023-09-08T13:15:01;30.20;99.90
13970;DHT22;7057;49.984;8.404;2023-09-08T13:17:28;30.10;99.90
13970;DHT22;7057;49.984;8.404;2023-09-08T13:19:57;30.00;99.90
13970;DHT22;7057;49.984;8.404;2023-09-08T13:22:24;30.20;99.90
13970;DHT22;7057;49.984;8.404;2023-09-08T13:24:51;30.40;99.90
13970;DHT22;7057;49.984;8.404;2023-09-08T13:27:18;30.40;99.90
13970;DHT22;7057;49.984;8.404;2023-09-08T13:29:45;30.50;99.90
13970;DHT22;7057;49.984;8.404;2023-09-08T13:32:13;30.50;99.90
13970;DHT22;7057;49.984;8.404;2023-09-08T13:34:40;30.40;99.90
13970;DHT22;7057;49.984;8.404;2023-09-08T13:37:10;30.30;99.90
13970;DHT22;7057;49.984;8.404;2023-09-08T13:39:39;30.30;99.90
13970;DHT22;7057;49.984;8.404;2023-09-08T13:42:06;30.30;99.90
13970;DHT22;7057;49.984;8.404;2023-09-08T13:44:33;30.40;99.90
13970;DHT22;7057;49.984;8.404;2023-09-08T13:47:00;30.40;99.90
13970;DHT22;7057;49.984;8.404;2023-09-08T13:49:27;30.30;99.90
13970;DHT22;7057;49.984;8.404;2023-09-08T13:51:54;30.30;99.90
13970;DHT22;7057;49.984;8.404;2023-09-08T13:54:24;30.30;99.90
13970;DHT22;7057;49.984;8.404;2023-09-08T13:56:58;30.30;99.90
13970;DHT22;7057;49.984;8.404;2023-09-08T13:59:27;30.30;99.90
13970;DHT22;7057;49.984;8.404;2023-09-08T14:01:55;30.30;99.90
13970;DHT22;7057;49.984;8.404;2023-09-08T14:04:23;30.30;99.90
13970;DHT22;7057;49.984;8.404;2023-09-08T14:06:50;30.30;99.90
13970;DHT22;7057;49.984;8.404;2023-09-08T14:09:17;30.40;99.90
13970;DHT22;7057;49.984;8.404;2023-09-08T14:11:46;30.40;99.90
13970;DHT22;7057;49.984;8.404;2023-09-08T14:14:13;30.40;99.90
13970;DHT22;7057;49.984;8.404;2023-09-08T14:16:40;30.40;99.90
13970;DHT22;7057;49.984;8.404;2023-09-08T14:19:07;30.30;99.90
13970;DHT22;7057;49.984;8.404;2023-09-08T14:21:35;30.40;99.90
13970;DHT22;7057;49.984;8.404;2023-09-08T14:24:03;30.40;99.90
13970;DHT22;7057;49.984;8.404;2023-09-08T14:26:30;30.40;99.90
13970;DHT22;7057;49.984;8.404;2023-09-08T14:28:59;30.30;99.90
13970;DHT22;7057;49.984;8.404;2023-09-08T14:31:26;30.20;99.90
13970;DHT22;7057;49.984;8.404;2023-09-08T14:33:53;30.20;99.90
13970;DHT22;7057;49.984;8.404;2023-09-08T14:36:21;30.30;99.90
13970;DHT22;7057;49.984;8.404;2023-09-08T14:38:48;30.10;99.90
13970;DHT22;7057;49.984;8.404;2023-09-08T14:41:15;30.10;99.90
13970;DHT22;7057;49.984;8.404;2023-09-08T14:43:43;30.00;99.90
13970;DHT22;7057;49.984;8.404;2023-09-08T14:46:11;30.00;99.90
13970;DHT22;7057;49.984;8.404;2023-09-08T14:48:38;30.10;99.90
13970;DHT22;7057;49.984;8.404;2023-09-08T14:51:07;30.10;99.90
13970;DHT22;7057;49.984;8.404;2023-09-08T14:53:34;30.20;99.90
13970;DHT22;7057;49.984;8.404;2023-09-08T14:56:01;30.20;99.90
13970;DHT22;7057;49.984;8.404;2023-09-08T14:58:30;30.30;99.90
13970;DHT22;7057;49.984;8.404;2023-09-08T15:01:00;30.30;99.90
13970;DHT22;7057;49.984;8.404;2023-09-08T15:03:32;30.20;99.90
13970;DHT22;7057;49.984;8.404;2023-09-08T15:05:59;30.30;99.90
13970;DHT22;7057;49.984;8.404;2023-09-08T15:08:27;30.30;99.90
13970;DHT22;7057;49.984;8.404;2023-09-08T15:10:54;30.30;99.90
13970;DHT22;7057;49.984;8.404;2023-09-08T15:13:21;30.30;99.90
13970;DHT22;7057;49.984;8.404;2023-09-08T15:15:48;30.30;99.90
13970;DHT22;7057;49.984;8.404;2023-09-08T15:18:15;30.40;99.90
13970;DHT22;7057;49.984;8.404;2023-09-08T15:20:51;30.40;99.90
13970;DHT22;7057;49.984;8.404;2023-09-08T15:23:19;30.40;99.90
13970;DHT22;7057;49.984;8.404;2023-09-08T15:25:53;30.20;99.90
13970;DHT22;7057;49.984;8.404;2023-09-08T15:28:21;30.20;99.90
13970;DHT22;7057;49.984;8.404;2023-09-08T15:30:48;30.10;99.90
13970;DHT22;7057;49.984;8.404;2023-09-08T15:33:16;30.10;99.90
13970;DHT22;7057;49.984;8.404;2023-09-08T15:35:43;30.10;99.90
13970;DHT22;7057;49.984;8.404;2023-09-08T15:38:12;30.10;99.90
13970;DHT22;7057;49.984;8.404;2023-09-08T15:41:13;30.00;99.90
13970;DHT22;7057;49.984;8.404;2023-09-08T15:43:45;30.00;99.90
13970;DHT22;7057;49.984;8.404;2023-09-08T15:46:12;30.00;99.90
13970;DHT22;7057;49.984;8.404;2023-09-08T15:48:39;30.00;99.90
13970;DHT22;7057;49.984;8.404;2023-09-08T15:51:07;29.90;99.90